createdAt,value
2023-05-08T00:00:17.054Z,87.266667
2023-05-08T00:05:17.146Z,87.416667
2023-05-08T00:10:16.933Z,87.816667
2023-05-08T00:15:17.069Z,88.137500
2023-05-08T00:20:17.029Z,88.116667
2023-05-08T00:25:17.201Z,87.837500
2023-05-08T00:30:17.024Z,87.808333
2023-05-08T00:35:16.893Z,87.870833
2023-05-08T00:40:17.012Z,87.916000
2023-05-08T00:45:16.955Z,87.904167
2023-05-08T00:50:16.956Z,87.975000
2023-05-08T00:55:17.006Z,88.087500
2023-05-08T01:00:17.147Z,88.300000
2023-05-08T01:05:16.914Z,88.188000
2023-05-08T01:10:17.219Z,88.041667
2023-05-08T01:15:16.893Z,87.975000
2023-05-08T01:20:17.248Z,88.187500
2023-05-08T01:25:16.936Z,88.250000
2023-05-08T01:30:17.194Z,88.266667
2023-05-08T01:35:16.887Z,88.429167
2023-05-08T01:40:17.100Z,88.420833
2023-05-08T01:45:17.130Z,88.891667
2023-05-08T01:50:17.481Z,88.433333
2023-05-08T01:55:17.162Z,88.691667
2023-05-08T02:00:16.921Z,89.258333
2023-05-08T02:05:17.068Z,89.266667
2023-05-08T02:10:17.084Z,89.208333
2023-05-08T02:15:17.123Z,89.629167
2023-05-08T02:20:16.993Z,89.687500
2023-05-08T02:25:17.100Z,89.962500
2023-05-08T02:30:17.079Z,90.054167
2023-05-08T02:35:16.990Z,89.995833
2023-05-08T02:40:16.932Z,89.683333
2023-05-08T02:45:16.837Z,89.712500
2023-05-08T02:50:16.954Z,90.016667
2023-05-08T02:55:16.908Z,90.066667
2023-05-08T03:00:17.009Z,90.258333
2023-05-08T03:05:16.848Z,90.283333
2023-05-08T03:10:16.985Z,90.366667
2023-05-08T03:15:17.082Z,90.420833
2023-05-08T03:20:17.039Z,90.508333
2023-05-08T03:25:16.996Z,90.566667
2023-05-08T03:30:17.045Z,90.616667
2023-05-08T03:35:16.857Z,90.260000
2023-05-08T03:40:17.050Z,90.270833
2023-05-08T03:45:17.092Z,90.583333
2023-05-08T03:50:17.007Z,90.600000
2023-05-08T03:55:17.135Z,90.716667
2023-05-08T04:00:16.903Z,90.941667
2023-05-08T04:05:16.915Z,90.908333
2023-05-08T04:10:17.192Z,91.066667
2023-05-08T04:15:16.937Z,91.745833
2023-05-08T04:20:17.175Z,91.500000
2023-05-08T04:25:16.998Z,91.337500
2023-05-08T04:30:17.363Z,91.480000
2023-05-08T04:35:16.953Z,91.758333
2023-05-08T04:40:17.158Z,91.950000
2023-05-08T04:45:17.045Z,92.016667
2023-05-08T04:50:16.837Z,91.912500
2023-05-08T04:55:17.276Z,92.066667
2023-05-08T05:00:16.983Z,91.995833
2023-05-08T05:05:16.970Z,91.716667
2023-05-08T05:10:16.884Z,90.895833
2023-05-08T05:15:16.837Z,89.762500
2023-05-08T05:20:17.024Z,88.387500
2023-05-08T05:25:17.130Z,86.854167
2023-05-08T05:30:17.070Z,85.983333
2023-05-08T05:35:16.896Z,84.937500
2023-05-08T05:40:17.114Z,84.737500
2023-05-08T05:45:16.913Z,83.508333
2023-05-08T05:50:16.770Z,83.254167
2023-05-08T05:55:17.000Z,82.545833
2023-05-08T06:00:17.672Z,81.395833
2023-05-08T06:05:17.026Z,80.250000
2023-05-08T06:10:16.941Z,79.825000
2023-05-08T06:15:17.011Z,79.500000
2023-05-08T06:20:16.912Z,78.433333
2023-05-08T06:25:17.166Z,78.088000
2023-05-08T06:30:16.917Z,77.845833
2023-05-08T06:35:16.855Z,77.783333
2023-05-08T06:40:16.881Z,76.916667
2023-05-08T06:45:17.057Z,76.829167
2023-05-08T06:50:17.284Z,75.900000
2023-05-08T06:55:17.071Z,75.800000
2023-05-08T07:00:17.137Z,75.250000
2023-05-08T07:05:17.298Z,74.883333
2023-05-08T07:10:16.907Z,73.633333
2023-05-08T07:15:25.238Z,73.770833
2023-05-08T07:20:17.078Z,73.254167
2023-05-08T07:25:16.961Z,73.500000
2023-05-08T07:30:16.874Z,72.233333
2023-05-08T07:35:17.079Z,72.670833
2023-05-08T07:40:16.925Z,72.279167
2023-05-08T07:45:17.247Z,71.700000
2023-05-08T07:50:16.839Z,71.841667
2023-05-08T07:55:16.993Z,71.158333
2023-05-08T08:00:16.937Z,71.200000
2023-05-08T08:05:17.178Z,71.141667
2023-05-08T08:10:17.178Z,69.287500
2023-05-08T08:15:17.022Z,69.670833
2023-05-08T08:20:17.182Z,70.216667
2023-05-08T08:25:16.976Z,69.662500
2023-05-08T08:30:18.660Z,69.404167
2023-05-08T08:35:17.361Z,69.825000
2023-05-08T08:40:16.968Z,67.920833
2023-05-08T08:45:17.145Z,69.766667
2023-05-08T08:50:16.911Z,67.933333
2023-05-08T08:55:17.321Z,68.050000
2023-05-08T09:00:16.815Z,67.400000
2023-05-08T09:05:16.970Z,67.737500
2023-05-08T09:10:16.783Z,67.732000
2023-05-08T09:15:16.898Z,67.383333
2023-05-08T09:20:16.969Z,65.200000
2023-05-08T09:25:16.831Z,64.854167
2023-05-08T09:30:16.976Z,64.466667
2023-05-08T09:35:17.108Z,63.958333
2023-05-08T09:40:16.955Z,64.829167
2023-05-08T09:45:16.695Z,64.375000
2023-05-08T09:50:16.915Z,63.879167
2023-05-08T09:55:17.148Z,62.408000
2023-05-08T10:00:17.099Z,62.183333
2023-05-08T10:05:17.040Z,61.887500
2023-05-08T10:10:16.802Z,61.483333
2023-05-08T10:15:17.065Z,62.083333
2023-05-08T10:20:16.741Z,60.875000
2023-05-08T10:25:16.850Z,59.341667
2023-05-08T10:30:16.931Z,60.304167
2023-05-08T10:35:16.881Z,59.416667
2023-05-08T10:40:16.946Z,59.704167
2023-05-08T10:45:16.736Z,61.450000
2023-05-08T10:50:16.846Z,58.083333
2023-05-08T10:55:16.775Z,57.300000
2023-05-08T11:00:16.844Z,58.604000
2023-05-08T11:05:17.188Z,57.254167
2023-05-08T11:10:16.834Z,58.600000
2023-05-08T11:15:17.099Z,55.616667
2023-05-08T11:20:17.083Z,57.450000
2023-05-08T11:25:16.855Z,54.462500
2023-05-08T11:30:16.897Z,57.233333
2023-05-08T11:35:16.705Z,56.045833
2023-05-08T11:40:17.113Z,54.587500
2023-05-08T11:45:16.686Z,53.766667
2023-05-08T11:50:17.140Z,54.200000
2023-05-08T11:55:17.255Z,51.991667
2023-05-08T12:00:17.155Z,51.629167
2023-05-08T12:05:16.818Z,50.425000
2023-05-08T12:10:19.461Z,53.466667
2023-05-08T12:15:19.141Z,49.072000
2023-05-08T12:20:19.612Z,48.850000
2023-05-08T12:25:19.729Z,47.987500
2023-05-08T12:30:19.669Z,49.450000
2023-05-08T12:35:19.589Z,48.440000
2023-05-08T12:40:19.449Z,48.570833
2023-05-08T12:45:19.227Z,46.373684
2023-05-08T12:50:19.204Z,48.137500
2023-05-08T12:55:19.316Z,46.912500
2023-05-08T13:00:19.250Z,47.508333
2023-05-08T13:05:19.214Z,48.625000
2023-05-08T13:10:20.798Z,47.900000
2023-05-08T13:15:19.348Z,44.816667
2023-05-08T13:20:19.459Z,47.716667
2023-05-08T13:25:19.560Z,45.512500
2023-05-08T13:30:19.653Z,43.912500
2023-05-08T13:35:19.306Z,45.320833
2023-05-08T13:40:19.372Z,44.912500
2023-05-08T13:45:19.397Z,45.045833
2023-05-08T13:50:19.565Z,43.941667
2023-05-08T13:55:19.548Z,44.470833
2023-05-08T14:00:19.149Z,44.554167
2023-05-08T14:05:19.695Z,42.650000
2023-05-08T14:10:19.322Z,45.566667
2023-05-08T14:15:19.264Z,45.162500
2023-05-08T14:20:19.172Z,42.350000
2023-05-08T14:25:19.212Z,45.387500
2023-05-08T14:30:19.256Z,42.670833
2023-05-08T14:35:19.214Z,43.750000
2023-05-08T14:40:19.227Z,43.395833
2023-05-08T14:45:19.175Z,43.600000
2023-05-08T14:50:19.380Z,42.950000
2023-05-08T14:55:19.518Z,43.825000
2023-05-08T15:00:19.410Z,44.854167
2023-05-08T15:05:20.492Z,42.295833
2023-05-08T15:10:19.256Z,43.520833
2023-05-08T15:15:19.104Z,43.845833
2023-05-08T15:20:19.573Z,45.295833
2023-05-08T15:25:19.240Z,47.125000
2023-05-08T15:30:19.280Z,47.666667
2023-05-08T15:35:19.109Z,47.820833
2023-05-08T15:40:19.278Z,47.004167
2023-05-08T15:45:19.195Z,48.150000
2023-05-08T15:50:19.395Z,52.320833
2023-05-08T15:55:20.377Z,53.175000
2023-05-08T16:00:20.116Z,53.441667
2023-05-08T16:05:19.541Z,54.316667
2023-05-08T16:10:19.168Z,55.537500
2023-05-08T16:15:19.310Z,55.570833
2023-05-08T16:20:19.186Z,56.200000
2023-05-08T16:25:19.424Z,57.670833
2023-05-08T16:30:19.164Z,57.960000
2023-05-08T16:35:19.883Z,59.895833
2023-05-08T16:40:19.338Z,58.904167
2023-05-08T16:45:19.338Z,59.645833
2023-05-08T16:50:19.640Z,60.175000
2023-05-08T16:55:19.378Z,60.650000
2023-05-08T17:00:19.647Z,59.645833
2023-05-08T17:05:19.218Z,58.916667
2023-05-08T17:10:19.345Z,58.929167
2023-05-08T17:15:19.168Z,59.516000
2023-05-08T17:20:19.328Z,60.004000
2023-05-08T17:25:19.223Z,60.020833
2023-05-08T17:30:24.182Z,60.983333
2023-05-08T17:35:19.178Z,62.425000
2023-05-08T17:40:19.362Z,62.933333
2023-05-08T17:45:19.145Z,63.283333
2023-05-08T17:50:19.474Z,62.608000
2023-05-08T17:55:19.112Z,62.920833
2023-05-08T18:00:19.241Z,63.450000
2023-05-08T18:05:19.336Z,63.362500
2023-05-08T18:10:19.210Z,63.987500
2023-05-08T18:15:19.260Z,65.037500
2023-05-08T18:20:19.218Z,65.633333
2023-05-08T18:25:19.282Z,67.016667
2023-05-08T18:30:16.684Z,67.937500
2023-05-08T18:35:16.646Z,69.150000
2023-05-08T18:40:16.799Z,70.079167
2023-05-08T18:45:16.794Z,70.520833
2023-05-08T18:50:16.820Z,69.908333
2023-05-08T18:55:16.776Z,70.137500
2023-05-08T19:00:16.620Z,71.583333
2023-05-08T19:05:16.648Z,74.133333
2023-05-08T19:10:17.017Z,73.683333
2023-05-08T19:15:16.923Z,72.375000
2023-05-08T19:20:17.089Z,71.533333
2023-05-08T19:25:17.302Z,72.395833
2023-05-08T19:30:17.140Z,72.662500
2023-05-08T19:35:17.280Z,73.687500
2023-05-08T19:40:16.811Z,73.216667
2023-05-08T19:45:16.971Z,72.766667
2023-05-08T19:50:16.722Z,73.070833
2023-05-08T19:55:16.805Z,73.354167
2023-05-08T20:00:16.708Z,73.489474
2023-05-08T20:05:22.577Z,73.612500
2023-05-08T20:10:16.856Z,74.395833
2023-05-08T20:15:16.524Z,74.900000
2023-05-08T20:20:16.695Z,75.604167
2023-05-08T20:25:16.557Z,76.204167
2023-05-08T20:30:16.735Z,76.258333
2023-05-08T20:35:16.586Z,76.383333
2023-05-08T20:40:17.024Z,77.150000
2023-05-08T20:45:16.728Z,78.612500
2023-05-08T20:50:16.738Z,79.583333
2023-05-08T20:55:16.730Z,81.075000
2023-05-08T21:00:16.764Z,82.595833
2023-05-08T21:05:16.692Z,84.083333
2023-05-08T21:10:16.916Z,84.625000
2023-05-08T21:15:16.798Z,84.941667
2023-05-08T21:20:16.881Z,85.279167
2023-05-08T21:25:16.786Z,85.250000
2023-05-08T21:30:19.086Z,86.091667
2023-05-08T21:35:19.075Z,86.408000
2023-05-08T21:40:19.053Z,86.620833
2023-05-08T21:45:19.099Z,86.541667
2023-05-08T21:50:19.365Z,86.608333
2023-05-08T21:55:19.101Z,86.883333
2023-05-08T22:00:19.956Z,87.883333
2023-05-08T22:05:19.104Z,87.833333
2023-05-08T22:10:19.035Z,87.466667
2023-05-08T22:15:29.875Z,88.325000
2023-05-08T22:20:19.087Z,88.291667
2023-05-08T22:25:19.335Z,88.650000
2023-05-08T22:30:19.164Z,88.287500
2023-05-08T22:35:19.516Z,89.383333
2023-05-08T22:40:19.300Z,88.962500
2023-05-08T22:45:19.242Z,88.591667
2023-05-08T22:50:19.161Z,88.704167
2023-05-08T22:55:19.120Z,89.437500
2023-05-08T23:00:19.076Z,89.083333
2023-05-08T23:05:19.033Z,87.740000
2023-05-08T23:10:19.006Z,87.966667
2023-05-08T23:15:19.389Z,88.487500
2023-05-08T23:20:18.939Z,88.595833
2023-05-08T23:25:19.063Z,88.500000
2023-05-08T23:30:18.997Z,89.070833
2023-05-08T23:35:19.711Z,88.795833
2023-05-08T23:40:19.083Z,88.750000
2023-05-08T23:45:18.987Z,89.333333
2023-05-08T23:50:19.284Z,89.600000
2023-05-08T23:55:18.985Z,89.108333
